sensor_id;sensor_type;location;lat;lon;timestamp;temperature;humidity
21799;DHT22;24973;47.178;15.316;2023-12-20T00:01:33;-0.30;99.90
21799;DHT22;24973;47.178;15.316;2023-12-20T00:07:12;-0.60;99.90
21799;DHT22;24973;47.178;15.316;2023-12-20T00:12:52;-0.40;99.90
21799;DHT22;24973;47.178;15.316;2023-12-20T00:26:59;-0.70;99.90
21799;DHT22;24973;47.178;15.316;2023-12-20T00:29:49;-0.50;99.90
21799;DHT22;24973;47.178;15.316;2023-12-20T00:38:23;-0.60;99.90
21799;DHT22;24973;47.178;15.316;2023-12-20T00:44:04;-0.80;99.90
21799;DHT22;24973;47.178;15.316;2023-12-20T00:46:55;-0.70;99.90
21799;DHT22;24973;47.178;15.316;2023-12-20T00:52:33;-0.80;99.90
21799;DHT22;24973;47.178;15.316;2023-12-20T01:03:53;-0.70;99.90
21799;DHT22;24973;47.178;15.316;2023-12-20T01:06:42;-0.80;99.90
21799;DHT22;24973;47.178;15.316;2023-12-20T01:12:21;-0.80;99.90
21799;DHT22;24973;47.178;15.316;2023-12-20T01:15:10;-0.80;99.90
21799;DHT22;24973;47.178;15.316;2023-12-20T01:18:00;0.40;99.90
21799;DHT22;24973;47.178;15.316;2023-12-20T01:20:51;-0.70;99.90
21799;DHT22;24973;47.178;15.316;2023-12-20T01:23:40;-0.90;99.90
21799;DHT22;24973;47.178;15.316;2023-12-20T01:26:30;-2.70;99.90
21799;DHT22;24973;47.178;15.316;2023-12-20T01:29:19;-1.10;99.90
21799;DHT22;24973;47.178;15.316;2023-12-20T01:32:09;-0.50;99.90
21799;DHT22;24973;47.178;15.316;2023-12-20T01:34:58;-0.60;99.90
21799;DHT22;24973;47.178;15.316;2023-12-20T01:37:50;-0.60;99.90
21799;DHT22;24973;47.178;15.316;2023-12-20T01:40:39;-0.60;99.90
21799;DHT22;24973;47.178;15.316;2023-12-20T01:43:29;-1.20;99.90
21799;DHT22;24973;47.178;15.316;2023-12-20T01:46:21;-2.00;99.90
21799;DHT22;24973;47.178;15.316;2023-12-20T01:49:12;-0.70;99.90
21799;DHT22;24973;47.178;15.316;2023-12-20T01:52:05;-0.80;99.90
21799;DHT22;24973;47.178;15.316;2023-12-20T01:54:59;-0.80;99.90
21799;DHT22;24973;47.178;15.316;2023-12-20T01:57:50;-1.10;99.90
21799;DHT22;24973;47.178;15.316;2023-12-20T02:00:40;-0.30;99.90
21799;DHT22;24973;47.178;15.316;2023-12-20T02:03:30;-0.20;99.90
21799;DHT22;24973;47.178;15.316;2023-12-20T02:06:20;-0.80;99.90
21799;DHT22;24973;47.178;15.316;2023-12-20T02:09:11;-0.90;99.90
21799;DHT22;24973;47.178;15.316;2023-12-20T02:12:05;-1.90;99.90
21799;DHT22;24973;47.178;15.316;2023-12-20T02:14:58;-0.80;99.90
21799;DHT22;24973;47.178;15.316;2023-12-20T02:17:47;-0.80;99.90
21799;DHT22;24973;47.178;15.316;2023-12-20T02:20:36;-0.90;99.90
21799;DHT22;24973;47.178;15.316;2023-12-20T02:23:29;-0.70;99.90
21799;DHT22;24973;47.178;15.316;2023-12-20T02:29:08;-0.80;99.90
21799;DHT22;24973;47.178;15.316;2023-12-20T02:31:57;-1.00;99.90
21799;DHT22;24973;47.178;15.316;2023-12-20T02:34:48;-1.60;99.90
21799;DHT22;24973;47.178;15.316;2023-12-20T02:37:37;-1.10;99.90
21799;DHT22;24973;47.178;15.316;2023-12-20T02:40:28;-1.20;99.90
21799;DHT22;24973;47.178;15.316;2023-12-20T02:43:18;-0.80;99.90
21799;DHT22;24973;47.178;15.316;2023-12-20T02:46:08;-0.80;99.90
21799;DHT22;24973;47.178;15.316;2023-12-20T02:48:58;-0.80;99.90
21799;DHT22;24973;47.178;15.316;2023-12-20T02:51:47;-0.50;99.90
21799;DHT22;24973;47.178;15.316;2023-12-20T02:54:36;-0.40;99.90
21799;DHT22;24973;47.178;15.316;2023-12-20T02:57:26;-0.50;99.90
21799;DHT22;24973;47.178;15.316;2023-12-20T03:00:16;-1.40;99.90
21799;DHT22;24973;47.178;15.316;2023-12-20T03:03:08;-1.60;99.90
21799;DHT22;24973;47.178;15.316;2023-12-20T03:05:58;-0.70;99.90
21799;DHT22;24973;47.178;15.316;2023-12-20T03:08:47;-0.70;99.90
21799;DHT22;24973;47.178;15.316;2023-12-20T03:11:37;-0.70;99.90
21799;DHT22;24973;47.178;15.316;2023-12-20T03:14:28;-1.00;99.90
21799;DHT22;24973;47.178;15.316;2023-12-20T03:17:17;-0.70;99.90
21799;DHT22;24973;47.178;15.316;2023-12-20T03:20:09;-0.90;99.90
21799;DHT22;24973;47.178;15.316;2023-12-20T03:22:58;-0.90;99.90
21799;DHT22;24973;47.178;15.316;2023-12-20T03:25:51;-0.80;99.90
21799;DHT22;24973;47.178;15.316;2023-12-20T03:28:40;-0.60;99.90
21799;DHT22;24973;47.178;15.316;2023-12-20T03:31:31;-0.90;99.90
21799;DHT22;24973;47.178;15.316;2023-12-20T03:34:21;-1.40;99.90
21799;DHT22;24973;47.178;15.316;2023-12-20T03:37:11;-0.90;99.90
21799;DHT22;24973;47.178;15.316;2023-12-20T03:40:01;0.60;99.90
21799;DHT22;24973;47.178;15.316;2023-12-20T03:42:51;-0.90;99.90
21799;DHT22;24973;47.178;15.316;2023-12-20T03:45:41;-1.40;99.90
21799;DHT22;24973;47.178;15.316;2023-12-20T03:48:35;-1.40;99.90
21799;DHT22;24973;47.178;15.316;2023-12-20T03:51:25;-1.30;99.90
21799;DHT22;24973;47.178;15.316;2023-12-20T03:54:18;-1.20;99.90
21799;DHT22;24973;47.178;15.316;2023-12-20T03:57:08;-0.10;99.90
21799;DHT22;24973;47.178;15.316;2023-12-20T03:59:57;-1.00;99.90
21799;DHT22;24973;47.178;15.316;2023-12-20T04:02:47;-0.70;99.90
21799;DHT22;24973;47.178;15.316;2023-12-20T04:05:38;-1.10;99.90
21799;DHT22;24973;47.178;15.316;2023-12-20T04:08:31;-0.80;99.90
21799;DHT22;24973;47.178;15.316;2023-12-20T04:11:27;-1.00;99.90
21799;DHT22;24973;47.178;15.316;2023-12-20T04:14:16;-1.60;99.90
21799;DHT22;24973;47.178;15.316;2023-12-20T04:17:08;-0.80;99.90
21799;DHT22;24973;47.178;15.316;2023-12-20T04:19:59;-0.70;99.90
21799;DHT22;24973;47.178;15.316;2023-12-20T04:22:51;-0.60;99.90
21799;DHT22;24973;47.178;15.316;2023-12-20T04:25:41;-0.60;99.90
21799;DHT22;24973;47.178;15.316;2023-12-20T04:31:22;-0.90;99.90
21799;DHT22;24973;47.178;15.316;2023-12-20T04:34:12;-1.10;99.90
21799;DHT22;24973;47.178;15.316;2023-12-20T04:37:02;-1.20;99.90
21799;DHT22;24973;47.178;15.316;2023-12-20T04:39:54;-1.40;99.90
21799;DHT22;24973;47.178;15.316;2023-12-20T04:42:43;-0.20;99.90
21799;DHT22;24973;47.178;15.316;2023-12-20T04:45:33;-1.10;99.90
21799;DHT22;24973;47.178;15.316;2023-12-20T04:48:25;1.20;99.90
21799;DHT22;24973;47.178;15.316;2023-12-20T04:51:15;-0.80;99.90
21799;DHT22;24973;47.178;15.316;2023-12-20T04:54:05;-0.90;99.90
21799;DHT22;24973;47.178;15.316;2023-12-20T04:56:55;-0.90;99.90
21799;DHT22;24973;47.178;15.316;2023-12-20T04:59:45;-0.70;99.90
21799;DHT22;24973;47.178;15.316;2023-12-20T05:02:34;-0.70;99.90
21799;DHT22;24973;47.178;15.316;2023-12-20T05:05:23;-0.60;99.90
21799;DHT22;24973;47.178;15.316;2023-12-20T05:08:12;-0.70;99.90
21799;DHT22;24973;47.178;15.316;2023-12-20T05:11:01;-0.50;99.90
21799;DHT22;24973;47.178;15.316;2023-12-20T05:13:52;-0.90;99.90
21799;DHT22;24973;47.178;15.316;2023-12-20T05:16:41;-1.00;99.90
21799;DHT22;24973;47.178;15.316;2023-12-20T05:19:29;-0.80;99.90
21799;DHT22;24973;47.178;15.316;2023-12-20T05:22:22;-1.00;99.90
21799;DHT22;24973;47.178;15.316;2023-12-20T05:25:11;-1.20;99.90
21799;DHT22;24973;47.178;15.316;2023-12-20T05:28:00;-1.10;99.90
21799;DHT22;24973;47.178;15.316;2023-12-20T05:30:50;-1.00;99.90
21799;DHT22;24973;47.178;15.316;2023-12-20T05:33:39;-0.60;99.90
21799;DHT22;24973;47.178;15.316;2023-12-20T05:36:28;-0.30;99.90
21799;DHT22;24973;47.178;15.316;2023-12-20T05:39:17;-0.50;99.90
21799;DHT22;24973;47.178;15.316;2023-12-20T05:42:06;-0.30;99.90
21799;DHT22;24973;47.178;15.316;2023-12-20T05:44:55;0.40;99.90
21799;DHT22;24973;47.178;15.316;2023-12-20T05:47:46;-0.20;99.90
21799;DHT22;24973;47.178;15.316;2023-12-20T05:50:35;-0.40;99.90
21799;DHT22;24973;47.178;15.316;2023-12-20T05:53:24;-0.40;99.90
21799;DHT22;24973;47.178;15.316;2023-12-20T05:56:13;-0.30;99.90
21799;DHT22;24973;47.178;15.316;2023-12-20T05:59:01;-0.40;99.90
21799;DHT22;24973;47.178;15.316;2023-12-20T06:01:50;-0.30;99.90
21799;DHT22;24973;47.178;15.316;2023-12-20T06:04:43;-0.40;99.90
21799;DHT22;24973;47.178;15.316;2023-12-20T06:07:32;-0.70;99.90
21799;DHT22;24973;47.178;15.316;2023-12-20T06:10:21;-0.40;99.90
21799;DHT22;24973;47.178;15.316;2023-12-20T06:13:10;-0.40;99.90
21799;DHT22;24973;47.178;15.316;2023-12-20T06:16:00;-0.50;99.90
21799;DHT22;24973;47.178;15.316;2023-12-20T06:18:49;-0.40;99.90
21799;DHT22;24973;47.178;15.316;2023-12-20T06:21:40;-0.30;99.90
21799;DHT22;24973;47.178;15.316;2023-12-20T06:24:30;-0.30;99.90
21799;DHT22;24973;47.178;15.316;2023-12-20T06:27:21;-0.20;99.90
21799;DHT22;24973;47.178;15.316;2023-12-20T06:30:10;-0.20;99.90
21799;DHT22;24973;47.178;15.316;2023-12-20T06:33:00;-0.10;99.90
21799;DHT22;24973;47.178;15.316;2023-12-20T06:35:48;-0.10;99.90
21799;DHT22;24973;47.178;15.316;2023-12-20T06:38:39;0.20;99.90
21799;DHT22;24973;47.178;15.316;2023-12-20T06:41:29;-0.10;99.90
21799;DHT22;24973;47.178;15.316;2023-12-20T06:44:18;0.30;99.90
21799;DHT22;24973;47.178;15.316;2023-12-20T06:47:07;0.60;99.90
21799;DHT22;24973;47.178;15.316;2023-12-20T06:49:56;0.70;99.90
21799;DHT22;24973;47.178;15.316;2023-12-20T06:52:45;0.60;99.90
21799;DHT22;24973;47.178;15.316;2023-12-20T06:55:36;0.80;99.90
21799;DHT22;24973;47.178;15.316;2023-12-20T06:58:26;0.80;99.90
21799;DHT22;24973;47.178;15.316;2023-12-20T07:01:16;0.80;99.90
21799;DHT22;24973;47.178;15.316;2023-12-20T07:04:05;0.30;99.90
21799;DHT22;24973;47.178;15.316;2023-12-20T07:06:54;0.60;99.90
21799;DHT22;24973;47.178;15.316;2023-12-20T07:09:44;1.10;99.90
21799;DHT22;24973;47.178;15.316;2023-12-20T07:12:35;1.10;99.90
21799;DHT22;24973;47.178;15.316;2023-12-20T07:15:24;1.70;99.90
21799;DHT22;24973;47.178;15.316;2023-12-20T07:18:14;1.10;99.90
21799;DHT22;24973;47.178;15.316;2023-12-20T07:21:03;1.50;99.90
21799;DHT22;24973;47.178;15.316;2023-12-20T07:23:52;1.40;99.90
21799;DHT22;24973;47.178;15.316;2023-12-20T07:26:41;1.40;99.90
21799;DHT22;24973;47.178;15.316;2023-12-20T07:29:32;1.50;99.90
21799;DHT22;24973;47.178;15.316;2023-12-20T07:32:21;3.90;99.90
21799;DHT22;24973;47.178;15.316;2023-12-20T07:35:10;1.70;99.90
21799;DHT22;24973;47.178;15.316;2023-12-20T07:37:59;1.60;99.90
21799;DHT22;24973;47.178;15.316;2023-12-20T07:40:49;1.60;99.90
21799;DHT22;24973;47.178;15.316;2023-12-20T07:43:38;1.70;99.90
21799;DHT22;24973;47.178;15.316;2023-12-20T07:46:28;1.70;99.90
21799;DHT22;24973;47.178;15.316;2023-12-20T07:49:19;1.80;99.90
21799;DHT22;24973;47.178;15.316;2023-12-20T07:52:08;2.00;99.90
21799;DHT22;24973;47.178;15.316;2023-12-20T07:54:57;2.00;99.90
21799;DHT22;24973;47.178;15.316;2023-12-20T07:57:46;2.00;99.90
21799;DHT22;24973;47.178;15.316;2023-12-20T08:00:35;1.90;99.90
21799;DHT22;24973;47.178;15.316;2023-12-20T08:03:25;2.10;99.90
21799;DHT22;24973;47.178;15.316;2023-12-20T08:06:14;2.20;99.90
21799;DHT22;24973;47.178;15.316;2023-12-20T08:09:04;2.20;99.90
21799;DHT22;24973;47.178;15.316;2023-12-20T08:11:53;2.30;99.90
21799;DHT22;24973;47.178;15.316;2023-12-20T08:14:42;2.30;99.90
21799;DHT22;24973;47.178;15.316;2023-12-20T08:17:34;2.40;99.90
21799;DHT22;24973;47.178;15.316;2023-12-20T08:20:37;2.40;99.90
21799;DHT22;24973;47.178;15.316;2023-12-20T08:23:26;2.30;99.90
21799;DHT22;24973;47.178;15.316;2023-12-20T08:26:19;2.40;99.90
21799;DHT22;24973;47.178;15.316;2023-12-20T08:29:10;2.50;99.90
21799;DHT22;24973;47.178;15.316;2023-12-20T08:32:01;2.50;99.90
21799;DHT22;24973;47.178;15.316;2023-12-20T08:34:50;2.30;99.90
21799;DHT22;24973;47.178;15.316;2023-12-20T08:37:41;2.70;99.90
21799;DHT22;24973;47.178;15.316;2023-12-20T08:40:30;2.70;99.90
21799;DHT22;24973;47.178;15.316;2023-12-20T08:43:19;2.80;99.90
21799;DHT22;24973;47.178;15.316;2023-12-20T08:46:08;2.70;99.90
21799;DHT22;24973;47.178;15.316;2023-12-20T08:48:57;3.00;99.90
21799;DHT22;24973;47.178;15.316;2023-12-20T08:51:47;2.90;99.90
21799;DHT22;24973;47.178;15.316;2023-12-20T08:54:38;3.30;99.90
21799;DHT22;24973;47.178;15.316;2023-12-20T08:57:27;3.10;99.90
21799;DHT22;24973;47.178;15.316;2023-12-20T09:00:16;3.30;99.90
21799;DHT22;24973;47.178;15.316;2023-12-20T09:03:08;3.20;99.90
21799;DHT22;24973;47.178;15.316;2023-12-20T09:05:57;3.00;99.90
21799;DHT22;24973;47.178;15.316;2023-12-20T09:08:46;3.20;99.90
21799;DHT22;24973;47.178;15.316;2023-12-20T09:11:36;3.00;99.90
21799;DHT22;24973;47.178;15.316;2023-12-20T09:14:25;3.10;99.90
21799;DHT22;24973;47.178;15.316;2023-12-20T09:17:14;3.40;99.90
21799;DHT22;24973;47.178;15.316;2023-12-20T09:20:04;3.50;99.90
21799;DHT22;24973;47.178;15.316;2023-12-20T09:22:55;3.40;99.90
21799;DHT22;24973;47.178;15.316;2023-12-20T09:25:44;3.60;99.90
21799;DHT22;24973;47.178;15.316;2023-12-20T09:28:35;3.30;99.90
21799;DHT22;24973;47.178;15.316;2023-12-20T09:31:24;3.50;99.90
21799;DHT22;24973;47.178;15.316;2023-12-20T09:34:15;3.70;99.90
21799;DHT22;24973;47.178;15.316;2023-12-20T09:37:05;3.60;99.90
21799;DHT22;24973;47.178;15.316;2023-12-20T09:39:55;3.70;99.90
21799;DHT22;24973;47.178;15.316;2023-12-20T09:42:48;3.90;99.90
21799;DHT22;24973;47.178;15.316;2023-12-20T09:45:42;3.70;99.90
21799;DHT22;24973;47.178;15.316;2023-12-20T09:48:34;3.90;99.90
21799;DHT22;24973;47.178;15.316;2023-12-20T09:51:25;4.00;99.90
21799;DHT22;24973;47.178;15.316;2023-12-20T09:54:16;4.30;99.90
21799;DHT22;24973;47.178;15.316;2023-12-20T09:57:05;4.00;99.90
21799;DHT22;24973;47.178;15.316;2023-12-20T09:59:54;4.20;99.90
21799;DHT22;24973;47.178;15.316;2023-12-20T10:02:50;4.60;99.90
21799;DHT22;24973;47.178;15.316;2023-12-20T10:05:44;4.20;99.90
21799;DHT22;24973;47.178;15.316;2023-12-20T10:08:34;4.30;99.90
21799;DHT22;24973;47.178;15.316;2023-12-20T10:11:23;4.50;99.90
21799;DHT22;24973;47.178;15.316;2023-12-20T10:14:12;4.20;99.90
21799;DHT22;24973;47.178;15.316;2023-12-20T10:17:03;4.40;99.90
21799;DHT22;24973;47.178;15.316;2023-12-20T10:19:53;4.30;99.90
21799;DHT22;24973;47.178;15.316;2023-12-20T10:22:42;5.00;99.90
21799;DHT22;24973;47.178;15.316;2023-12-20T10:25:31;4.50;99.90
21799;DHT22;24973;47.178;15.316;2023-12-20T10:28:20;4.70;99.90
21799;DHT22;24973;47.178;15.316;2023-12-20T10:31:10;4.80;99.90
21799;DHT22;24973;47.178;15.316;2023-12-20T10:34:14;4.50;99.90
21799;DHT22;24973;47.178;15.316;2023-12-20T10:37:05;4.40;99.90
21799;DHT22;24973;47.178;15.316;2023-12-20T10:39:54;4.50;99.90
21799;DHT22;24973;47.178;15.316;2023-12-20T10:42:45;4.40;99.90
21799;DHT22;24973;47.178;15.316;2023-12-20T10:45:34;4.50;99.90
21799;DHT22;24973;47.178;15.316;2023-12-20T10:48:24;4.60;99.90
21799;DHT22;24973;47.178;15.316;2023-12-20T10:51:18;5.10;99.90
21799;DHT22;24973;47.178;15.316;2023-12-20T10:54:08;5.00;99.90
21799;DHT22;24973;47.178;15.316;2023-12-20T10:57:00;5.30;99.90
21799;DHT22;24973;47.178;15.316;2023-12-20T10:59:54;5.10;99.90
21799;DHT22;24973;47.178;15.316;2023-12-20T11:02:44;5.10;99.90
21799;DHT22;24973;47.178;15.316;2023-12-20T11:05:44;4.90;99.90
21799;DHT22;24973;47.178;15.316;2023-12-20T11:08:42;5.30;99.90
21799;DHT22;24973;47.178;15.316;2023-12-20T11:11:42;4.80;99.90
21799;DHT22;24973;47.178;15.316;2023-12-20T11:14:42;5.00;99.90
21799;DHT22;24973;47.178;15.316;2023-12-20T11:17:35;4.80;99.90
21799;DHT22;24973;47.178;15.316;2023-12-20T11:20:24;4.90;99.90
21799;DHT22;24973;47.178;15.316;2023-12-20T11:23:24;5.10;99.90
21799;DHT22;24973;47.178;15.316;2023-12-20T11:26:16;5.40;99.90
21799;DHT22;24973;47.178;15.316;2023-12-20T11:29:34;5.30;99.90
21799;DHT22;24973;47.178;15.316;2023-12-20T11:32:30;5.10;99.90
21799;DHT22;24973;47.178;15.316;2023-12-20T11:35:19;5.50;99.90
21799;DHT22;24973;47.178;15.316;2023-12-20T11:38:11;5.90;99.90
21799;DHT22;24973;47.178;15.316;2023-12-20T11:41:01;5.60;99.90
21799;DHT22;24973;47.178;15.316;2023-12-20T11:43:53;5.80;99.90
21799;DHT22;24973;47.178;15.316;2023-12-20T11:46:44;6.10;99.90
21799;DHT22;24973;47.178;15.316;2023-12-20T11:49:33;6.20;99.90
21799;DHT22;24973;47.178;15.316;2023-12-20T11:52:22;6.50;99.90
21799;DHT22;24973;47.178;15.316;2023-12-20T11:55:11;6.50;99.90
21799;DHT22;24973;47.178;15.316;2023-12-20T11:58:00;6.90;99.90
21799;DHT22;24973;47.178;15.316;2023-12-20T12:00:49;6.80;99.90
21799;DHT22;24973;47.178;15.316;2023-12-20T12:03:40;6.70;99.90
21799;DHT22;24973;47.178;15.316;2023-12-20T12:06:30;6.40;99.90
21799;DHT22;24973;47.178;15.316;2023-12-20T12:09:19;6.50;99.90
21799;DHT22;24973;47.178;15.316;2023-12-20T12:12:08;6.20;99.90
21799;DHT22;24973;47.178;15.316;2023-12-20T12:14:58;6.30;99.90
21799;DHT22;24973;47.178;15.316;2023-12-20T12:17:53;6.30;99.90
21799;DHT22;24973;47.178;15.316;2023-12-20T12:20:44;6.10;99.90
21799;DHT22;24973;47.178;15.316;2023-12-20T12:23:33;6.20;99.90
21799;DHT22;24973;47.178;15.316;2023-12-20T12:26:25;6.30;99.90
21799;DHT22;24973;47.178;15.316;2023-12-20T12:29:14;6.40;99.90
21799;DHT22;24973;47.178;15.316;2023-12-20T12:32:05;6.40;99.90
21799;DHT22;24973;47.178;15.316;2023-12-20T12:34:54;6.30;99.90
21799;DHT22;24973;47.178;15.316;2023-12-20T12:37:44;6.50;99.90
21799;DHT22;24973;47.178;15.316;2023-12-20T12:40:35;6.30;99.90
21799;DHT22;24973;47.178;15.316;2023-12-20T12:43:24;6.40;99.90
21799;DHT22;24973;47.178;15.316;2023-12-20T12:46:13;6.40;99.90
21799;DHT22;24973;47.178;15.316;2023-12-20T12:49:02;6.50;99.90
21799;DHT22;24973;47.178;15.316;2023-12-20T12:51:51;6.30;99.90
21799;DHT22;24973;47.178;15.316;2023-12-20T12:54:42;6.50;99.90
21799;DHT22;24973;47.178;15.316;2023-12-20T12:57:32;6.20;99.90
21799;DHT22;24973;47.178;15.316;2023-12-20T13:00:22;6.60;99.90
21799;DHT22;24973;47.178;15.316;2023-12-20T13:03:11;6.40;99.90
21799;DHT22;24973;47.178;15.316;2023-12-20T13:06:00;6.50;99.90
21799;DHT22;24973;47.178;15.316;2023-12-20T13:08:50;6.50;99.90
21799;DHT22;24973;47.178;15.316;2023-12-20T13:11:40;6.60;99.90
21799;DHT22;24973;47.178;15.316;2023-12-20T13:14:29;7.00;99.90
21799;DHT22;24973;47.178;15.316;2023-12-20T13:17:19;6.80;99.90
21799;DHT22;24973;47.178;15.316;2023-12-20T13:20:09;6.90;99.90
21799;DHT22;24973;47.178;15.316;2023-12-20T13:22:58;6.90;99.90
21799;DHT22;24973;47.178;15.316;2023-12-20T13:25:47;6.70;99.90
21799;DHT22;24973;47.178;15.316;2023-12-20T13:28:37;6.90;99.90
21799;DHT22;24973;47.178;15.316;2023-12-20T13:31:26;6.30;99.90
21799;DHT22;24973;47.178;15.316;2023-12-20T13:34:15;6.20;99.90
21799;DHT22;24973;47.178;15.316;2023-12-20T13:37:05;6.10;99.90
21799;DHT22;24973;47.178;15.316;2023-12-20T13:39:54;6.20;99.90
21799;DHT22;24973;47.178;15.316;2023-12-20T13:42:43;6.20;99.90
21799;DHT22;24973;47.178;15.316;2023-12-20T13:45:34;6.10;99.90
21799;DHT22;24973;47.178;15.316;2023-12-20T13:48:23;6.30;99.90
21799;DHT22;24973;47.178;15.316;2023-12-20T13:51:12;5.90;99.90
21799;DHT22;24973;47.178;15.316;2023-12-20T13:54:01;6.30;99.90
21799;DHT22;24973;47.178;15.316;2023-12-20T13:56:50;6.30;99.90
21799;DHT22;24973;47.178;15.316;2023-12-20T13:59:42;5.90;99.90
21799;DHT22;24973;47.178;15.316;2023-12-20T14:02:33;6.80;99.90
21799;DHT22;24973;47.178;15.316;2023-12-20T14:05:22;5.90;99.90
21799;DHT22;24973;47.178;15.316;2023-12-20T14:08:12;5.90;99.90
21799;DHT22;24973;47.178;15.316;2023-12-20T14:11:01;5.90;99.90
21799;DHT22;24973;47.178;15.316;2023-12-20T14:13:50;5.80;99.90
21799;DHT22;24973;47.178;15.316;2023-12-20T14:16:38;5.80;99.90
21799;DHT22;24973;47.178;15.316;2023-12-20T14:19:31;6.10;99.90
21799;DHT22;24973;47.178;15.316;2023-12-20T14:22:19;6.60;99.90
21799;DHT22;24973;47.178;15.316;2023-12-20T14:25:10;5.80;99.90
21799;DHT22;24973;47.178;15.316;2023-12-20T14:27:59;5.90;99.90
21799;DHT22;24973;47.178;15.316;2023-12-20T14:30:48;6.20;99.90
21799;DHT22;24973;47.178;15.316;2023-12-20T14:33:37;6.00;99.90
21799;DHT22;24973;47.178;15.316;2023-12-20T14:36:28;5.90;99.90
21799;DHT22;24973;47.178;15.316;2023-12-20T14:39:18;5.60;99.90
21799;DHT22;24973;47.178;15.316;2023-12-20T14:42:07;5.40;99.90
21799;DHT22;24973;47.178;15.316;2023-12-20T14:44:59;5.60;99.90
21799;DHT22;24973;47.178;15.316;2023-12-20T14:47:48;5.30;99.90
21799;DHT22;24973;47.178;15.316;2023-12-20T14:50:37;5.40;99.90
21799;DHT22;24973;47.178;15.316;2023-12-20T14:53:29;5.40;99.90
21799;DHT22;24973;47.178;15.316;2023-12-20T14:56:18;5.00;99.90
21799;DHT22;24973;47.178;15.316;2023-12-20T14:59:07;4.80;99.90
21799;DHT22;24973;47.178;15.316;2023-12-20T15:01:56;4.50;99.90
21799;DHT22;24973;47.178;15.316;2023-12-20T15:04:45;4.80;99.90
21799;DHT22;24973;47.178;15.316;2023-12-20T15:07:35;4.40;99.90
21799;DHT22;24973;47.178;15.316;2023-12-20T15:10:26;4.50;99.90
21799;DHT22;24973;47.178;15.316;2023-12-20T15:13:15;4.90;99.90
21799;DHT22;24973;47.178;15.316;2023-12-20T15:16:05;4.80;99.90
21799;DHT22;24973;47.178;15.316;2023-12-20T15:18:55;4.30;99.90
21799;DHT22;24973;47.178;15.316;2023-12-20T15:21:44;4.30;99.90
21799;DHT22;24973;47.178;15.316;2023-12-20T15:24:33;4.20;99.90
21799;DHT22;24973;47.178;15.316;2023-12-20T15:27:27;4.40;99.90
21799;DHT22;24973;47.178;15.316;2023-12-20T15:30:16;4.20;99.90
21799;DHT22;24973;47.178;15.316;2023-12-20T15:33:06;4.10;99.90
21799;DHT22;24973;47.178;15.316;2023-12-20T15:35:55;4.30;99.90
21799;DHT22;24973;47.178;15.316;2023-12-20T15:38:43;3.60;99.90
21799;DHT22;24973;47.178;15.316;2023-12-20T15:41:33;3.80;99.90
21799;DHT22;24973;47.178;15.316;2023-12-20T15:44:24;3.90;99.90
21799;DHT22;24973;47.178;15.316;2023-12-20T15:47:12;3.90;99.90
21799;DHT22;24973;47.178;15.316;2023-12-20T15:50:01;3.70;99.90
21799;DHT22;24973;47.178;15.316;2023-12-20T15:52:51;3.40;99.90
21799;DHT22;24973;47.178;15.316;2023-12-20T15:55:40;3.30;99.90
21799;DHT22;24973;47.178;15.316;2023-12-20T15:58:29;3.40;99.90
21799;DHT22;24973;47.178;15.316;2023-12-20T16:01:20;3.40;99.90
21799;DHT22;24973;47.178;15.316;2023-12-20T16:04:09;3.10;99.90
21799;DHT22;24973;47.178;15.316;2023-12-20T16:06:58;3.00;99.90
21799;DHT22;24973;47.178;15.316;2023-12-20T16:09:47;3.20;99.90
21799;DHT22;24973;47.178;15.316;2023-12-20T16:12:36;3.00;99.90
21799;DHT22;24973;47.178;15.316;2023-12-20T16:15:25;3.20;99.90
21799;DHT22;24973;47.178;15.316;2023-12-20T16:18:15;3.20;99.90
21799;DHT22;24973;47.178;15.316;2023-12-20T16:21:05;2.80;99.90
21799;DHT22;24973;47.178;15.316;2023-12-20T16:23:54;2.70;99.90
21799;DHT22;24973;47.178;15.316;2023-12-20T16:26:43;2.80;99.90
21799;DHT22;24973;47.178;15.316;2023-12-20T16:29:32;3.50;99.90
21799;DHT22;24973;47.178;15.316;2023-12-20T16:32:21;2.80;99.90
21799;DHT22;24973;47.178;15.316;2023-12-20T16:35:11;2.70;99.90
21799;DHT22;24973;47.178;15.316;2023-12-20T16:38:00;2.80;99.90
21799;DHT22;24973;47.178;15.316;2023-12-20T16:40:49;2.40;99.90
21799;DHT22;24973;47.178;15.316;2023-12-20T16:43:38;2.70;99.90
21799;DHT22;24973;47.178;15.316;2023-12-20T16:46:27;2.60;99.90
21799;DHT22;24973;47.178;15.316;2023-12-20T16:49:16;2.70;99.90
21799;DHT22;24973;47.178;15.316;2023-12-20T16:52:07;2.30;99.90
21799;DHT22;24973;47.178;15.316;2023-12-20T16:54:56;2.20;99.90
21799;DHT22;24973;47.178;15.316;2023-12-20T16:57:45;2.10;99.90
21799;DHT22;24973;47.178;15.316;2023-12-20T17:00:34;2.30;99.90
21799;DHT22;24973;47.178;15.316;2023-12-20T17:03:23;2.20;99.90
21799;DHT22;24973;47.178;15.316;2023-12-20T17:06:13;2.30;99.90
21799;DHT22;24973;47.178;15.316;2023-12-20T17:09:04;2.30;99.90
21799;DHT22;24973;47.178;15.316;2023-12-20T17:12:17;2.10;99.90
21799;DHT22;24973;47.178;15.316;2023-12-20T17:15:06;2.50;99.90
21799;DHT22;24973;47.178;15.316;2023-12-20T17:17:56;2.40;99.90
21799;DHT22;24973;47.178;15.316;2023-12-20T17:20:45;2.20;99.90
21799;DHT22;24973;47.178;15.316;2023-12-20T17:23:34;2.20;99.90
21799;DHT22;24973;47.178;15.316;2023-12-20T17:26:24;2.30;99.90
21799;DHT22;24973;47.178;15.316;2023-12-20T17:29:13;2.30;99.90
21799;DHT22;24973;47.178;15.316;2023-12-20T17:32:03;2.80;99.90
21799;DHT22;24973;47.178;15.316;2023-12-20T17:34:52;2.40;99.90
21799;DHT22;24973;47.178;15.316;2023-12-20T17:37:41;2.60;99.90
21799;DHT22;24973;47.178;15.316;2023-12-20T17:40:30;2.40;99.90
21799;DHT22;24973;47.178;15.316;2023-12-20T17:43:20;2.30;99.90
21799;DHT22;24973;47.178;15.316;2023-12-20T17:46:09;2.70;99.90
21799;DHT22;24973;47.178;15.316;2023-12-20T17:48:58;2.60;99.90
21799;DHT22;24973;47.178;15.316;2023-12-20T17:51:48;2.30;99.90
21799;DHT22;24973;47.178;15.316;2023-12-20T17:54:37;2.20;99.90
21799;DHT22;24973;47.178;15.316;2023-12-20T17:57:26;2.30;99.90
21799;DHT22;24973;47.178;15.316;2023-12-20T18:00:19;2.30;99.90
21799;DHT22;24973;47.178;15.316;2023-12-20T18:03:08;2.10;99.90
21799;DHT22;24973;47.178;15.316;2023-12-20T18:05:58;3.40;99.90
21799;DHT22;24973;47.178;15.316;2023-12-20T18:08:47;2.00;99.90
21799;DHT22;24973;47.178;15.316;2023-12-20T18:11:36;1.50;99.90
21799;DHT22;24973;47.178;15.316;2023-12-20T18:14:25;1.60;99.90
21799;DHT22;24973;47.178;15.316;2023-12-20T18:17:15;1.80;99.90
21799;DHT22;24973;47.178;15.316;2023-12-20T18:20:05;1.70;99.90
21799;DHT22;24973;47.178;15.316;2023-12-20T18:22:54;1.80;99.90
21799;DHT22;24973;47.178;15.316;2023-12-20T18:25:43;1.50;99.90
21799;DHT22;24973;47.178;15.316;2023-12-20T18:28:32;1.70;99.90
21799;DHT22;24973;47.178;15.316;2023-12-20T18:31:21;1.50;99.90
21799;DHT22;24973;47.178;15.316;2023-12-20T18:34:12;1.40;99.90